sensor_id;sensor_type;location;lat;lon;timestamp;temperature;humidity
28358;DHT22;15605;48.114;11.522;2024-03-07T00:01:08;12.40;63.20
28358;DHT22;15605;48.114;11.522;2024-03-07T00:03:37;12.40;63.10
28358;DHT22;15605;48.114;11.522;2024-03-07T00:06:07;12.40;63.10
28358;DHT22;15605;48.114;11.522;2024-03-07T00:08:40;12.40;63.20
28358;DHT22;15605;48.114;11.522;2024-03-07T00:11:11;12.40;63.10
28358;DHT22;15605;48.114;11.522;2024-03-07T00:13:44;12.40;63.10
28358;DHT22;15605;48.114;11.522;2024-03-07T00:16:13;12.40;63.10
28358;DHT22;15605;48.114;11.522;2024-03-07T00:18:44;12.40;63.20
28358;DHT22;15605;48.114;11.522;2024-03-07T00:21:14;12.40;63.10
28358;DHT22;15605;48.114;11.522;2024-03-07T00:23:48;12.40;63.10
28358;DHT22;15605;48.114;11.522;2024-03-07T00:26:18;12.40;63.10
28358;DHT22;15605;48.114;11.522;2024-03-07T00:28:48;12.40;63.20
28358;DHT22;15605;48.114;11.522;2024-03-07T00:31:18;12.30;63.20
28358;DHT22;15605;48.114;11.522;2024-03-07T00:33:49;12.40;63.20
28358;DHT22;15605;48.114;11.522;2024-03-07T00:39:50;12.40;63.10
28358;DHT22;15605;48.114;11.522;2024-03-07T00:42:20;12.40;63.10
28358;DHT22;15605;48.114;11.522;2024-03-07T00:44:51;12.40;63.10
28358;DHT22;15605;48.114;11.522;2024-03-07T00:47:25;12.40;63.00
28358;DHT22;15605;48.114;11.522;2024-03-07T00:53:24;12.40;63.00
28358;DHT22;15605;48.114;11.522;2024-03-07T00:55:56;12.40;62.90
28358;DHT22;15605;48.114;11.522;2024-03-07T00:58:27;12.40;63.00
28358;DHT22;15605;48.114;11.522;2024-03-07T01:00:56;12.30;63.10
28358;DHT22;15605;48.114;11.522;2024-03-07T01:03:27;12.30;63.20
28358;DHT22;15605;48.114;11.522;2024-03-07T01:05:58;12.30;63.10
28358;DHT22;15605;48.114;11.522;2024-03-07T01:08:29;12.40;63.10
28358;DHT22;15605;48.114;11.522;2024-03-07T01:11:01;12.40;63.10
28358;DHT22;15605;48.114;11.522;2024-03-07T01:13:40;12.30;63.10
28358;DHT22;15605;48.114;11.522;2024-03-07T01:16:13;12.30;63.10
28358;DHT22;15605;48.114;11.522;2024-03-07T01:18:44;12.40;63.10
28358;DHT22;15605;48.114;11.522;2024-03-07T01:28:12;12.30;63.10
28358;DHT22;15605;48.114;11.522;2024-03-07T01:30:42;12.40;63.00
28358;DHT22;15605;48.114;11.522;2024-03-07T01:33:17;12.40;63.00
28358;DHT22;15605;48.114;11.522;2024-03-07T01:35:48;12.40;62.90
28358;DHT22;15605;48.114;11.522;2024-03-07T01:38:21;12.40;63.00
28358;DHT22;15605;48.114;11.522;2024-03-07T01:40:51;12.40;63.10
28358;DHT22;15605;48.114;11.522;2024-03-07T01:43:23;12.40;63.00
28358;DHT22;15605;48.114;11.522;2024-03-07T01:45:55;12.40;62.90
28358;DHT22;15605;48.114;11.522;2024-03-07T01:59:07;12.30;63.10
28358;DHT22;15605;48.114;11.522;2024-03-07T02:01:41;12.30;63.00
28358;DHT22;15605;48.114;11.522;2024-03-07T02:04:11;12.40;63.00
28358;DHT22;15605;48.114;11.522;2024-03-07T02:06:43;12.40;63.00
28358;DHT22;15605;48.114;11.522;2024-03-07T02:16:23;12.40;63.10
28358;DHT22;15605;48.114;11.522;2024-03-07T02:18:55;12.40;63.10
28358;DHT22;15605;48.114;11.522;2024-03-07T02:21:25;12.40;63.00
28358;DHT22;15605;48.114;11.522;2024-03-07T02:23:56;12.40;63.10
28358;DHT22;15605;48.114;11.522;2024-03-07T02:26:27;12.40;63.10
28358;DHT22;15605;48.114;11.522;2024-03-07T02:35:25;12.30;63.10
28358;DHT22;15605;48.114;11.522;2024-03-07T02:37:59;12.40;63.20
28358;DHT22;15605;48.114;11.522;2024-03-07T02:43:59;12.30;63.30
28358;DHT22;15605;48.114;11.522;2024-03-07T02:52:28;12.30;63.20
28358;DHT22;15605;48.114;11.522;2024-03-07T02:55:00;12.30;63.20
28358;DHT22;15605;48.114;11.522;2024-03-07T02:57:33;12.30;63.20
28358;DHT22;15605;48.114;11.522;2024-03-07T03:00:05;12.40;63.20
28358;DHT22;15605;48.114;11.522;2024-03-07T03:02:50;12.30;63.20
28358;DHT22;15605;48.114;11.522;2024-03-07T03:05:21;12.40;63.30
28358;DHT22;15605;48.114;11.522;2024-03-07T03:07:52;12.40;63.20
28358;DHT22;15605;48.114;11.522;2024-03-07T03:10:24;12.40;63.20
28358;DHT22;15605;48.114;11.522;2024-03-07T03:12:58;12.40;63.10
28358;DHT22;15605;48.114;11.522;2024-03-07T03:15:30;12.40;63.10
28358;DHT22;15605;48.114;11.522;2024-03-07T03:18:02;12.40;63.10
28358;DHT22;15605;48.114;11.522;2024-03-07T03:20:33;12.40;63.20
28358;DHT22;15605;48.114;11.522;2024-03-07T03:30:05;12.40;63.30
28358;DHT22;15605;48.114;11.522;2024-03-07T03:32:36;12.40;63.30
28358;DHT22;15605;48.114;11.522;2024-03-07T03:35:08;12.30;63.40
28358;DHT22;15605;48.114;11.522;2024-03-07T03:37:45;12.40;63.30
28358;DHT22;15605;48.114;11.522;2024-03-07T03:40:16;12.40;63.10
28358;DHT22;15605;48.114;11.522;2024-03-07T03:42:51;12.40;63.10
28358;DHT22;15605;48.114;11.522;2024-03-07T03:45:21;12.30;63.30
28358;DHT22;15605;48.114;11.522;2024-03-07T03:54:31;12.40;63.20
28358;DHT22;15605;48.114;11.522;2024-03-07T03:57:44;12.40;63.30
28358;DHT22;15605;48.114;11.522;2024-03-07T06:26:17;12.00;61.00
28358;DHT22;15605;48.114;11.522;2024-03-07T06:29:07;12.00;60.90
28358;DHT22;15605;48.114;11.522;2024-03-07T06:31:46;11.90;60.90
28358;DHT22;15605;48.114;11.522;2024-03-07T06:34:17;11.90;61.00
28358;DHT22;15605;48.114;11.522;2024-03-07T06:36:48;11.80;60.90
28358;DHT22;15605;48.114;11.522;2024-03-07T06:39:20;11.90;60.90
28358;DHT22;15605;48.114;11.522;2024-03-07T06:41:51;11.80;60.90
28358;DHT22;15605;48.114;11.522;2024-03-07T07:05:11;11.80;60.60
28358;DHT22;15605;48.114;11.522;2024-03-07T07:07:45;11.80;60.40
28358;DHT22;15605;48.114;11.522;2024-03-07T07:10:20;11.90;60.40
28358;DHT22;15605;48.114;11.522;2024-03-07T07:12:56;12.00;60.30
28358;DHT22;15605;48.114;11.522;2024-03-07T07:15:30;12.00;60.20
28358;DHT22;15605;48.114;11.522;2024-03-07T07:18:02;12.00;60.20
28358;DHT22;15605;48.114;11.522;2024-03-07T07:20:38;12.10;60.30
28358;DHT22;15605;48.114;11.522;2024-03-07T07:26:38;12.20;60.00
28358;DHT22;15605;48.114;11.522;2024-03-07T07:29:14;12.20;59.90
28358;DHT22;15605;48.114;11.522;2024-03-07T07:31:46;12.20;59.80
28358;DHT22;15605;48.114;11.522;2024-03-07T07:34:30;12.20;59.80
28358;DHT22;15605;48.114;11.522;2024-03-07T07:37:04;12.20;60.50
28358;DHT22;15605;48.114;11.522;2024-03-07T07:39:47;12.20;60.50
28358;DHT22;15605;48.114;11.522;2024-03-07T07:42:23;12.20;59.80
28358;DHT22;15605;48.114;11.522;2024-03-07T07:44:55;12.30;59.80
28358;DHT22;15605;48.114;11.522;2024-03-07T07:47:31;12.20;59.80
28358;DHT22;15605;48.114;11.522;2024-03-07T07:50:08;12.20;59.70
28358;DHT22;15605;48.114;11.522;2024-03-07T07:52:48;12.30;59.80
28358;DHT22;15605;48.114;11.522;2024-03-07T07:55:26;12.30;59.70
28358;DHT22;15605;48.114;11.522;2024-03-07T07:58:13;12.20;59.70
28358;DHT22;15605;48.114;11.522;2024-03-07T08:00:50;12.30;59.80
28358;DHT22;15605;48.114;11.522;2024-03-07T08:03:26;12.30;59.90
28358;DHT22;15605;48.114;11.522;2024-03-07T08:05:57;12.20;59.80
28358;DHT22;15605;48.114;11.522;2024-03-07T08:08:29;12.30;59.80
28358;DHT22;15605;48.114;11.522;2024-03-07T08:11:01;12.30;59.80
28358;DHT22;15605;48.114;11.522;2024-03-07T08:13:48;12.30;59.80
28358;DHT22;15605;48.114;11.522;2024-03-07T08:16:22;12.30;59.80
28358;DHT22;15605;48.114;11.522;2024-03-07T08:21:51;12.30;59.80
28358;DHT22;15605;48.114;11.522;2024-03-07T08:24:23;12.30;59.80
28358;DHT22;15605;48.114;11.522;2024-03-07T08:37:23;12.30;59.70
28358;DHT22;15605;48.114;11.522;2024-03-07T08:40:02;12.30;59.70
28358;DHT22;15605;48.114;11.522;2024-03-07T08:42:38;12.30;59.70
28358;DHT22;15605;48.114;11.522;2024-03-07T08:45:12;12.30;59.80
28358;DHT22;15605;48.114;11.522;2024-03-07T08:48:31;12.30;59.80
28358;DHT22;15605;48.114;11.522;2024-03-07T08:51:05;12.30;59.90
28358;DHT22;15605;48.114;11.522;2024-03-07T08:53:41;12.30;59.90
28358;DHT22;15605;48.114;11.522;2024-03-07T08:56:17;12.20;59.90
28358;DHT22;15605;48.114;11.522;2024-03-07T08:58:50;12.20;60.60
28358;DHT22;15605;48.114;11.522;2024-03-07T09:01:37;12.30;59.90
28358;DHT22;15605;48.114;11.522;2024-03-07T09:04:11;12.30;59.80
28358;DHT22;15605;48.114;11.522;2024-03-07T09:06:52;12.30;59.80
28358;DHT22;15605;48.114;11.522;2024-03-07T09:09:30;12.30;59.80
28358;DHT22;15605;48.114;11.522;2024-03-07T09:12:15;12.30;59.90
28358;DHT22;15605;48.114;11.522;2024-03-07T09:14:58;12.30;59.80
28358;DHT22;15605;48.114;11.522;2024-03-07T09:17:47;12.30;59.90
28358;DHT22;15605;48.114;11.522;2024-03-07T09:20:26;12.30;59.80
28358;DHT22;15605;48.114;11.522;2024-03-07T09:23:00;12.30;59.80
28358;DHT22;15605;48.114;11.522;2024-03-07T09:25:42;12.40;59.80
28358;DHT22;15605;48.114;11.522;2024-03-07T09:28:22;12.30;59.80
28358;DHT22;15605;48.114;11.522;2024-03-07T09:31:00;12.30;59.80
28358;DHT22;15605;48.114;11.522;2024-03-07T09:36:43;12.30;59.80
28358;DHT22;15605;48.114;11.522;2024-03-07T09:39:21;12.20;60.00
28358;DHT22;15605;48.114;11.522;2024-03-07T09:41:57;12.30;60.10
28358;DHT22;15605;48.114;11.522;2024-03-07T09:44:38;12.30;60.10
28358;DHT22;15605;48.114;11.522;2024-03-07T09:47:25;12.20;60.00
28358;DHT22;15605;48.114;11.522;2024-03-07T09:49:59;12.20;60.00
28358;DHT22;15605;48.114;11.522;2024-03-07T09:52:42;12.30;60.10
28358;DHT22;15605;48.114;11.522;2024-03-07T09:55:27;12.30;60.10
28358;DHT22;15605;48.114;11.522;2024-03-07T09:58:08;12.30;60.10
28358;DHT22;15605;48.114;11.522;2024-03-07T10:00:40;12.30;60.10
28358;DHT22;15605;48.114;11.522;2024-03-07T10:03:18;12.20;60.20
28358;DHT22;15605;48.114;11.522;2024-03-07T10:06:02;12.20;60.20
28358;DHT22;15605;48.114;11.522;2024-03-07T10:08:40;12.30;60.20
28358;DHT22;15605;48.114;11.522;2024-03-07T10:11:26;12.20;60.10
28358;DHT22;15605;48.114;11.522;2024-03-07T10:14:27;12.30;60.20
28358;DHT22;15605;48.114;11.522;2024-03-07T10:16:59;12.30;60.00
28358;DHT22;15605;48.114;11.522;2024-03-07T10:19:54;12.30;60.00
28358;DHT22;15605;48.114;11.522;2024-03-07T10:22:31;12.30;59.90
28358;DHT22;15605;48.114;11.522;2024-03-07T10:25:07;12.30;59.90
28358;DHT22;15605;48.114;11.522;2024-03-07T10:28:37;12.30;59.90
28358;DHT22;15605;48.114;11.522;2024-03-07T10:35:21;12.30;59.80
28358;DHT22;15605;48.114;11.522;2024-03-07T10:37:54;12.30;59.80
28358;DHT22;15605;48.114;11.522;2024-03-07T10:40:40;12.30;59.80
28358;DHT22;15605;48.114;11.522;2024-03-07T10:46:35;12.30;59.90
28358;DHT22;15605;48.114;11.522;2024-03-07T10:49:10;12.30;59.80
28358;DHT22;15605;48.114;11.522;2024-03-07T11:01:25;12.30;59.80
28358;DHT22;15605;48.114;11.522;2024-03-07T11:11:06;12.30;59.80
28358;DHT22;15605;48.114;11.522;2024-03-07T11:14:29;12.40;59.70
28358;DHT22;15605;48.114;11.522;2024-03-07T11:20:40;12.40;59.70
28358;DHT22;15605;48.114;11.522;2024-03-07T11:23:29;12.30;59.70
28358;DHT22;15605;48.114;11.522;2024-03-07T11:26:07;12.30;59.70
28358;DHT22;15605;48.114;11.522;2024-03-07T11:28:38;12.30;59.80
28358;DHT22;15605;48.114;11.522;2024-03-07T11:44:32;12.30;59.90
28358;DHT22;15605;48.114;11.522;2024-03-07T11:47:18;12.40;59.80
28358;DHT22;15605;48.114;11.522;2024-03-07T11:49:53;12.40;59.70
28358;DHT22;15605;48.114;11.522;2024-03-07T11:52:27;12.30;59.70
28358;DHT22;15605;48.114;11.522;2024-03-07T11:55:02;12.30;59.80
28358;DHT22;15605;48.114;11.522;2024-03-07T11:58:33;12.30;59.80
28358;DHT22;15605;48.114;11.522;2024-03-07T12:01:11;12.30;59.70
28358;DHT22;15605;48.114;11.522;2024-03-07T12:09:38;12.30;59.60
28358;DHT22;15605;48.114;11.522;2024-03-07T12:12:17;12.30;59.80
28358;DHT22;15605;48.114;11.522;2024-03-07T12:14:59;12.30;59.70
28358;DHT22;15605;48.114;11.522;2024-03-07T12:17:31;12.30;59.70
28358;DHT22;15605;48.114;11.522;2024-03-07T12:20:18;12.30;59.70
28358;DHT22;15605;48.114;11.522;2024-03-07T12:23:01;12.30;59.60
28358;DHT22;15605;48.114;11.522;2024-03-07T12:25:35;12.30;59.50
28358;DHT22;15605;48.114;11.522;2024-03-07T12:28:06;12.40;59.50
28358;DHT22;15605;48.114;11.522;2024-03-07T12:30:48;12.40;59.40
28358;DHT22;15605;48.114;11.522;2024-03-07T12:34:02;12.40;59.50
28358;DHT22;15605;48.114;11.522;2024-03-07T12:40:10;12.40;59.50
28358;DHT22;15605;48.114;11.522;2024-03-07T12:46:19;12.40;59.60
28358;DHT22;15605;48.114;11.522;2024-03-07T12:52:40;12.40;59.60
28358;DHT22;15605;48.114;11.522;2024-03-07T12:55:12;12.40;59.50
28358;DHT22;15605;48.114;11.522;2024-03-07T12:57:44;12.30;59.50
28358;DHT22;15605;48.114;11.522;2024-03-07T13:00:55;12.40;59.50
28358;DHT22;15605;48.114;11.522;2024-03-07T13:03:26;12.40;59.40
28358;DHT22;15605;48.114;11.522;2024-03-07T13:05:59;12.30;59.30
28358;DHT22;15605;48.114;11.522;2024-03-07T13:08:36;12.30;59.40
28358;DHT22;15605;48.114;11.522;2024-03-07T13:11:18;12.40;59.30
28358;DHT22;15605;48.114;11.522;2024-03-07T13:14:05;12.40;59.30
28358;DHT22;15605;48.114;11.522;2024-03-07T13:16:38;12.40;59.30
28358;DHT22;15605;48.114;11.522;2024-03-07T13:19:12;12.30;59.20
28358;DHT22;15605;48.114;11.522;2024-03-07T13:22:31;12.30;59.20
28358;DHT22;15605;48.114;11.522;2024-03-07T13:24:42;12.40;59.20
28358;DHT22;15605;48.114;11.522;2024-03-07T13:27:12;12.40;59.10
28358;DHT22;15605;48.114;11.522;2024-03-07T13:30:00;12.40;59.10
28358;DHT22;15605;48.114;11.522;2024-03-07T13:32:46;12.30;58.90
28358;DHT22;15605;48.114;11.522;2024-03-07T13:35:19;12.30;59.00
28358;DHT22;15605;48.114;11.522;2024-03-07T13:37:58;12.30;58.80
28358;DHT22;15605;48.114;11.522;2024-03-07T13:40:37;12.30;58.90
28358;DHT22;15605;48.114;11.522;2024-03-07T13:43:18;12.40;58.80
28358;DHT22;15605;48.114;11.522;2024-03-07T13:46:06;12.40;58.70
28358;DHT22;15605;48.114;11.522;2024-03-07T13:51:58;12.40;58.70
28358;DHT22;15605;48.114;11.522;2024-03-07T13:58:09;12.40;58.80
28358;DHT22;15605;48.114;11.522;2024-03-07T14:22:01;12.30;58.80
28358;DHT22;15605;48.114;11.522;2024-03-07T14:33:07;12.30;58.70
28358;DHT22;15605;48.114;11.522;2024-03-07T14:35:58;12.30;58.70
28358;DHT22;15605;48.114;11.522;2024-03-07T14:38:55;12.30;58.60
28358;DHT22;15605;48.114;11.522;2024-03-07T14:44:39;12.40;58.70
28358;DHT22;15605;48.114;11.522;2024-03-07T14:50:30;12.30;58.60
28358;DHT22;15605;48.114;11.522;2024-03-07T14:53:07;12.30;58.70
28358;DHT22;15605;48.114;11.522;2024-03-07T14:56:01;12.20;58.80
28358;DHT22;15605;48.114;11.522;2024-03-07T14:58:33;12.20;59.00
28358;DHT22;15605;48.114;11.522;2024-03-07T15:01:06;12.10;59.00
28358;DHT22;15605;48.114;11.522;2024-03-07T15:07:26;12.00;59.40
28358;DHT22;15605;48.114;11.522;2024-03-07T15:10:27;12.00;59.30
28358;DHT22;15605;48.114;11.522;2024-03-07T15:13:45;11.90;59.20
28358;DHT22;15605;48.114;11.522;2024-03-07T15:19:46;12.00;58.90
28358;DHT22;15605;48.114;11.522;2024-03-07T15:26:27;12.00;58.80
28358;DHT22;15605;48.114;11.522;2024-03-07T15:29:17;12.00;58.70
28358;DHT22;15605;48.114;11.522;2024-03-07T15:31:52;12.00;58.70
28358;DHT22;15605;48.114;11.522;2024-03-07T15:34:35;12.00;58.80
28358;DHT22;15605;48.114;11.522;2024-03-07T15:37:07;11.90;58.80
28358;DHT22;15605;48.114;11.522;2024-03-07T15:39:46;11.90;58.90
28358;DHT22;15605;48.114;11.522;2024-03-07T15:56:10;11.90;59.00
28358;DHT22;15605;48.114;11.522;2024-03-07T16:12:16;12.00;58.40
28358;DHT22;15605;48.114;11.522;2024-03-07T16:14:52;12.00;58.20
28358;DHT22;15605;48.114;11.522;2024-03-07T16:17:36;11.90;58.20
28358;DHT22;15605;48.114;11.522;2024-03-07T16:23:28;12.00;58.30
28358;DHT22;15605;48.114;11.522;2024-03-07T16:32:08;12.00;58.10
28358;DHT22;15605;48.114;11.522;2024-03-07T16:38:07;11.90;58.10
28358;DHT22;15605;48.114;11.522;2024-03-07T16:40:41;12.00;57.90
28358;DHT22;15605;48.114;11.522;2024-03-07T16:46:48;12.00;57.60
28358;DHT22;15605;48.114;11.522;2024-03-07T16:52:48;12.00;57.70
28358;DHT22;15605;48.114;11.522;2024-03-07T16:59:09;12.00;57.70
28358;DHT22;15605;48.114;11.522;2024-03-07T17:01:49;12.10;57.30
28358;DHT22;15605;48.114;11.522;2024-03-07T23:38:01;11.40;53.50
